Time;durP1;ratioP1;P1;durP2;ratioP2;P2;SDS_P1;SDS_P2;PMS_P1;PMS_P2;Temp;Humidity;BMP_temperature;BMP_pressure;BME280_temperature;BME280_humidity;BME280_pressure;Samples;Min_cycle;Max_cycle;Signal;HPM_P1;HPM_P2
2023/12/07 00:00:17;;;;;;;38.20;22.70;;;7.30;99.90;;;;;;4265842;27;20046;-60
2023/12/07 00:02:19;;;;;;;37.50;22.77;;;7.30;99.90;;;;;;4265907;27;20046;-61
2023/12/07 00:04:21;;;;;;;38.22;22.42;;;7.20;99.90;;;;;;4266052;27;20627;-62
2023/12/07 00:06:23;;;;;;;39.13;23.02;;;7.20;99.90;;;;;;4265765;27;20046;-61
2023/12/07 00:08:25;;;;;;;38.53;23.90;;;7.30;99.90;;;;;;4265818;27;20046;-62
2023/12/07 00:10:27;;;;;;;41.92;23.55;;;7.10;99.90;;;;;;4265747;27;20077;-65
2023/12/07 00:12:29;;;;;;;39.35;24.30;;;7.10;99.90;;;;;;4267670;27;20039;-65
2023/12/07 00:14:31;;;;;;;38.30;23.13;;;7.00;99.90;;;;;;4265925;27;20492;-61
2023/12/07 00:16:35;;;;;;;39.97;23.40;;;7.00;99.90;;;;;;4265234;27;20070;-61
2023/12/07 00:18:37;;;;;;;37.00;24.00;;;7.00;99.90;;;;;;4265481;27;20400;-61
2023/12/07 00:20:39;;;;;;;38.65;24.02;;;7.10;99.90;;;;;;4265253;27;20074;-61
2023/12/07 00:22:41;;;;;;;42.75;26.20;;;7.00;99.90;;;;;;4265560;27;20077;-61
2023/12/07 00:24:43;;;;;;;40.45;23.98;;;7.00;99.90;;;;;;4265070;27;20126;-61
2023/12/07 00:26:45;;;;;;;39.20;25.98;;;7.00;99.90;;;;;;4265518;27;20278;-62
2023/12/07 00:28:47;;;;;;;41.00;23.52;;;6.80;99.90;;;;;;4266589;27;20486;-62
2023/12/07 00:30:49;;;;;;;40.95;24.02;;;6.80;99.90;;;;;;4266342;27;20050;-61
2023/12/07 00:32:53;;;;;;;43.83;25.77;;;6.90;99.90;;;;;;4266825;27;20567;-62
2023/12/07 00:34:55;;;;;;;39.67;23.35;;;7.00;99.90;;;;;;4267207;27;20043;-63
2023/12/07 00:36:57;;;;;;;38.38;23.27;;;6.90;99.90;;;;;;4266317;27;20071;-61
2023/12/07 00:38:59;;;;;;;38.05;22.80;;;6.80;99.90;;;;;;4265119;27;20129;-63
2023/12/07 00:41:01;;;;;;;29.83;19.83;;;6.70;99.90;;;;;;4265636;27;20046;-63
2023/12/07 00:43:03;;;;;;;26.80;18.48;;;6.80;99.90;;;;;;4265426;27;20130;-61
2023/12/07 00:45:06;;;;;;;37.33;18.83;;;6.80;99.90;;;;;;4265088;27;20051;-61
2023/12/07 00:47:08;;;;;;;32.90;18.33;;;6.80;99.90;;;;;;4264947;27;20043;-61
2023/12/07 00:49:12;;;;;;;33.05;19.65;;;6.90;99.90;;;;;;4265285;27;20477;-61
2023/12/07 00:51:15;;;;;;;37.03;21.25;;;6.90;99.90;;;;;;4265128;27;20074;-61
2023/12/07 00:53:17;;;;;;;27.92;18.30;;;6.80;99.90;;;;;;4264897;27;20216;-60
2023/12/07 00:55:19;;;;;;;30.42;19.60;;;6.90;99.90;;;;;;4265180;27;20092;-67
2023/12/07 00:57:21;;;;;;;32.15;18.50;;;6.90;99.90;;;;;;4246759;27;20051;-61
2023/12/07 00:59:23;;;;;;;33.10;19.70;;;6.80;99.90;;;;;;4265036;27;20051;-61
2023/12/07 01:01:27;;;;;;;31.80;20.33;;;6.80;99.90;;;;;;4265380;27;20105;-62
2023/12/07 01:03:30;;;;;;;31.07;18.90;;;6.80;99.90;;;;;;4265523;27;20078;-61
2023/12/07 01:05:33;;;;;;;29.85;18.83;;;6.80;99.90;;;;;;4264361;27;20118;-61
2023/12/07 01:07:36;;;;;;;32.45;18.88;;;6.90;99.90;;;;;;4266480;27;20046;-63
2023/12/07 01:09:38;;;;;;;31.85;18.48;;;6.80;99.90;;;;;;4266550;27;20470;-62
2023/12/07 01:11:40;;;;;;;30.85;19.15;;;6.90;99.90;;;;;;4267112;27;20069;-61
2023/12/07 01:13:42;;;;;;;28.50;17.00;;;6.90;99.90;;;;;;4266168;27;20034;-61
2023/12/07 01:15:45;;;;;;;30.70;19.70;;;6.90;99.90;;;;;;4265379;27;20462;-61
2023/12/07 01:17:47;;;;;;;28.42;18.40;;;6.90;99.90;;;;;;4264939;27;20069;-61
2023/12/07 01:19:49;;;;;;;31.40;19.27;;;6.90;99.90;;;;;;4264869;27;20358;-61
2023/12/07 01:21:52;;;;;;;26.95;16.92;;;6.90;99.90;;;;;;4265054;27;20045;-61
2023/12/07 01:23:54;;;;;;;29.90;19.38;;;7.00;99.90;;;;;;4264554;27;20039;-60
2023/12/07 01:26:11;;;;;;;24.90;17.15;;;7.00;99.90;;;;;;4265997;27;20070;-61
2023/12/07 01:28:13;;;;;;;32.75;20.73;;;7.00;99.90;;;;;;4246460;27;20132;-60
2023/12/07 01:30:16;;;;;;;30.35;19.75;;;7.00;99.90;;;;;;4264780;27;20055;-61
2023/12/07 01:32:18;;;;;;;24.38;16.70;;;6.90;99.90;;;;;;4264689;27;20039;-61
2023/12/07 01:34:20;;;;;;;34.03;20.83;;;6.80;99.90;;;;;;4264635;27;20061;-61
2023/12/07 01:36:23;;;;;;;31.02;19.67;;;6.90;99.90;;;;;;4229246;28;20048;-61
2023/12/07 01:38:26;;;;;;;26.77;18.92;;;6.90;99.90;;;;;;4264189;27;20130;-61
2023/12/07 01:40:28;;;;;;;32.13;20.77;;;6.90;99.90;;;;;;4264371;27;20496;-60
2023/12/07 01:42:32;;;;;;;28.65;19.13;;;6.80;99.90;;;;;;4264508;27;20047;-61
2023/12/07 01:44:35;;;;;;;20.50;13.85;;;6.80;99.90;;;;;;4246137;27;20043;-61
2023/12/07 01:46:37;;;;;;;33.15;21.40;;;6.80;99.90;;;;;;4264466;27;20110;-60
2023/12/07 01:48:40;;;;;;;31.73;19.70;;;6.80;99.90;;;;;;4246027;27;20080;-60
2023/12/07 01:50:42;;;;;;;26.27;17.73;;;6.80;99.90;;;;;;4264398;27;20130;-60
2023/12/07 01:52:48;;;;;;;29.45;19.33;;;6.90;99.90;;;;;;4264095;27;20046;-60
2023/12/07 01:54:52;;;;;;;38.38;22.02;;;6.90;99.90;;;;;;4246007;27;20454;-60
2023/12/07 01:56:55;;;;;;;31.35;20.50;;;6.80;99.90;;;;;;4246152;28;20498;-61
2023/12/07 01:58:57;;;;;;;42.45;25.40;;;6.90;99.90;;;;;;4264834;27;20458;-61
2023/12/07 02:01:00;;;;;;;37.28;22.73;;;6.80;99.90;;;;;;4264947;27;20079;-62
2023/12/07 02:03:04;;;;;;;32.10;20.98;;;6.80;99.90;;;;;;4267062;27;20070;-60
2023/12/07 02:05:07;;;;;;;36.47;20.30;;;6.80;99.90;;;;;;4264370;27;20049;-61
2023/12/07 02:07:10;;;;;;;30.08;19.02;;;6.80;99.90;;;;;;4264230;27;20402;-61
2023/12/07 02:09:12;;;;;;;40.00;22.75;;;6.90;99.90;;;;;;4264547;27;20054;-61
2023/12/07 02:11:16;;;;;;;35.15;20.13;;;6.90;99.90;;;;;;4265348;27;20062;-68
2023/12/07 02:13:23;;;;;;;27.58;18.83;;;7.00;99.90;;;;;;4266048;27;20070;-63
2023/12/07 02:15:25;;;;;;;33.13;21.45;;;6.90;99.90;;;;;;4265859;27;20516;-61
2023/12/07 02:17:33;;;;;;;36.38;21.60;;;6.90;99.90;;;;;;4266111;27;20129;-60
2023/12/07 02:19:52;;;;;;;38.40;22.02;;;6.70;99.90;;;;;;4267785;27;20130;-61
2023/12/07 02:21:59;;;;;;;34.40;21.15;;;6.80;99.90;;;;;;4266990;27;20074;-61
2023/12/07 02:24:03;;;;;;;31.13;19.38;;;6.60;99.90;;;;;;4267238;27;20042;-61
2023/12/07 02:26:08;;;;;;;29.75;19.20;;;6.60;99.90;;;;;;4267041;27;20047;-62
2023/12/07 02:28:14;;;;;;;32.78;18.48;;;6.60;99.90;;;;;;4267592;27;20043;-61
2023/12/07 02:30:16;;;;;;;28.52;17.55;;;6.50;99.90;;;;;;4267222;27;20050;-61
2023/12/07 02:32:19;;;;;;;31.27;19.60;;;6.50;99.90;;;;;;4249080;27;20532;-61
2023/12/07 02:34:21;;;;;;;27.63;17.23;;;6.60;99.90;;;;;;4266998;27;20408;-60
2023/12/07 02:36:27;;;;;;;29.60;17.15;;;6.50;99.90;;;;;;4266807;27;20060;-61
2023/12/07 02:38:29;;;;;;;25.10;14.93;;;6.50;99.90;;;;;;4267186;27;20473;-61
2023/12/07 02:40:32;;;;;;;31.90;17.23;;;6.60;99.90;;;;;;4266994;27;20054;-61
2023/12/07 02:42:34;;;;;;;30.58;16.35;;;6.50;99.90;;;;;;4267159;27;20053;-61
2023/12/07 02:44:41;;;;;;;21.73;14.38;;;6.50;99.90;;;;;;4266769;27;20134;-61
2023/12/07 02:46:44;;;;;;;28.58;15.52;;;6.50;99.90;;;;;;4266839;27;20409;-61
2023/12/07 02:48:46;;;;;;;24.63;14.60;;;6.60;99.90;;;;;;4266737;27;20078;-61
2023/12/07 02:50:48;;;;;;;25.08;14.70;;;6.60;99.90;;;;;;4266298;27;20051;-61
2023/12/07 02:52:51;;;;;;;23.73;14.43;;;6.60;99.90;;;;;;4266994;27;20068;-61
2023/12/07 02:54:53;;;;;;;22.38;13.98;;;6.50;99.90;;;;;;4266455;27;20070;-61
2023/12/07 02:56:55;;;;;;;27.58;15.00;;;6.50;99.90;;;;;;4266956;27;20457;-61
2023/12/07 02:58:57;;;;;;;25.05;14.63;;;6.60;99.90;;;;;;4266751;27;20057;-61
2023/12/07 03:01:00;;;;;;;23.02;13.50;;;6.50;99.90;;;;;;4266678;27;20066;-62
2023/12/07 03:03:02;;;;;;;19.10;12.55;;;6.60;99.90;;;;;;4266784;27;20052;-61
2023/12/07 03:05:06;;;;;;;22.63;12.48;;;6.70;99.90;;;;;;4266751;27;20077;-61
2023/12/07 03:07:08;;;;;;;21.25;14.05;;;6.80;99.90;;;;;;4266785;27;20053;-62
2023/12/07 03:09:10;;;;;;;26.85;15.07;;;6.70;99.90;;;;;;4266973;27;20405;-61
2023/12/07 03:11:12;;;;;;;24.95;14.75;;;6.80;99.90;;;;;;4266392;27;20039;-67
2023/12/07 03:13:14;;;;;;;28.10;17.50;;;6.70;99.90;;;;;;4266549;27;20043;-60
2023/12/07 03:15:16;;;;;;;24.88;15.95;;;6.60;99.90;;;;;;4266315;27;20050;-61
2023/12/07 03:17:20;;;;;;;26.45;15.55;;;6.60;99.90;;;;;;4266666;27;20070;-61
2023/12/07 03:19:22;;;;;;;22.80;15.90;;;6.50;99.90;;;;;;4266099;27;20079;-61
2023/12/07 03:21:24;;;;;;;23.58;14.60;;;6.40;99.90;;;;;;4266434;27;20115;-61
2023/12/07 03:23:26;;;;;;;22.55;14.60;;;6.30;99.90;;;;;;4266275;27;20478;-61
2023/12/07 03:25:28;;;;;;;21.38;13.38;;;6.30;99.90;;;;;;4266303;27;20052;-61
2023/12/07 03:27:30;;;;;;;22.95;13.98;;;6.30;99.90;;;;;;4266040;27;20049;-61
2023/12/07 03:29:33;;;;;;;25.42;15.15;;;6.30;99.90;;;;;;4265217;27;20451;-61
2023/12/07 03:31:35;;;;;;;27.58;16.35;;;6.30;99.90;;;;;;4247712;27;20098;-61
2023/12/07 03:33:40;;;;;;;24.00;15.48;;;6.30;99.90;;;;;;4266034;27;20046;-61
2023/12/07 03:35:42;;;;;;;24.40;16.35;;;6.30;99.90;;;;;;4266497;27;20038;-61
2023/12/07 03:37:44;;;;;;;22.90;14.55;;;6.30;99.90;;;;;;4266028;27;20050;-61
2023/12/07 03:39:47;;;;;;;27.38;15.95;;;6.40;99.90;;;;;;4266241;27;20054;-61
2023/12/07 03:41:49;;;;;;;21.60;14.90;;;6.50;99.90;;;;;;4266263;27;20519;-61
2023/12/07 03:43:51;;;;;;;21.42;14.13;;;6.50;99.90;;;;;;4266063;27;20053;-61
2023/12/07 03:45:53;;;;;;;21.52;13.57;;;6.40;99.90;;;;;;4266303;27;20485;-61
2023/12/07 03:47:55;;;;;;;20.80;14.10;;;6.30;99.90;;;;;;4247577;27;20054;-60
2023/12/07 03:49:59;;;;;;;22.50;14.95;;;6.30;99.90;;;;;;4247799;27;20047;-61
2023/12/07 03:52:01;;;;;;;19.35;13.50;;;6.40;99.90;;;;;;4265886;27;20409;-61
2023/12/07 03:54:03;;;;;;;21.65;12.93;;;6.40;99.90;;;;;;4265849;27;20039;-63
2023/12/07 03:56:06;;;;;;;19.52;12.70;;;6.40;99.90;;;;;;4266159;27;20051;-61
2023/12/07 03:58:09;;;;;;;18.08;12.38;;;6.40;99.90;;;;;;4248749;27;20084;-62
2023/12/07 04:00:12;;;;;;;20.73;12.85;;;6.40;99.90;;;;;;4266893;27;20042;-61
2023/12/07 04:02:14;;;;;;;21.95;14.27;;;6.40;99.90;;;;;;4265826;27;20041;-61
2023/12/07 04:04:16;;;;;;;22.15;13.80;;;6.40;99.90;;;;;;4265883;27;20066;-61
2023/12/07 04:06:20;;;;;;;21.70;11.48;;;6.50;99.90;;;;;;4247349;27;20063;-61
2023/12/07 04:08:22;;;;;;;21.20;13.38;;;6.70;99.90;;;;;;4265534;27;20074;-61
2023/12/07 04:10:29;;;;;;;22.17;13.07;;;6.60;99.90;;;;;;4248130;27;20078;-61
2023/12/07 04:12:36;;;;;;;20.15;14.05;;;6.70;99.90;;;;;;4265554;27;20078;-61
2023/12/07 04:14:39;;;;;;;21.58;14.63;;;6.70;99.90;;;;;;4265520;27;20061;-61
2023/12/07 04:16:41;;;;;;;20.25;12.18;;;6.70;99.90;;;;;;4265110;27;20042;-62
2023/12/07 04:18:43;;;;;;;21.27;12.82;;;6.70;99.90;;;;;;4265669;27;20053;-61
2023/12/07 04:20:45;;;;;;;17.20;12.20;;;6.60;99.90;;;;;;4265686;27;20427;-61
2023/12/07 04:22:48;;;;;;;20.02;13.30;;;6.50;99.90;;;;;;4265499;27;20047;-61
2023/12/07 04:24:50;;;;;;;19.60;12.80;;;6.60;99.90;;;;;;4265586;27;20047;-61
2023/12/07 04:26:52;;;;;;;17.70;13.65;;;6.60;99.90;;;;;;4265330;27;20056;-62
2023/12/07 04:28:55;;;;;;;19.70;13.40;;;6.60;99.90;;;;;;4265502;27;20488;-60
2023/12/07 04:30:57;;;;;;;17.13;11.63;;;6.60;99.90;;;;;;4265161;27;20074;-61
2023/12/07 04:32:59;;;;;;;17.20;12.00;;;6.60;99.90;;;;;;4265358;27;20053;-61
2023/12/07 04:35:01;;;;;;;20.33;13.20;;;6.70;99.90;;;;;;4265455;27;20083;-61
2023/12/07 04:37:03;;;;;;;17.10;11.45;;;6.60;99.90;;;;;;4265336;27;20484;-61
2023/12/07 04:39:08;;;;;;;19.75;12.05;;;6.60;99.90;;;;;;4246854;27;20055;-61
2023/12/07 04:41:10;;;;;;;18.35;13.43;;;6.60;99.90;;;;;;4265086;27;20118;-60
2023/12/07 04:43:12;;;;;;;19.95;12.60;;;6.60;99.90;;;;;;4265321;27;20379;-61
2023/12/07 04:45:14;;;;;;;17.38;12.52;;;6.50;99.90;;;;;;4264985;27;20434;-62
2023/12/07 04:47:16;;;;;;;18.02;12.10;;;6.50;99.90;;;;;;4265194;27;20049;-62
2023/12/07 04:49:18;;;;;;;17.45;12.90;;;6.60;99.90;;;;;;4266199;27;20041;-61
2023/12/07 04:51:21;;;;;;;17.95;12.20;;;6.70;99.90;;;;;;4265424;27;20050;-61
2023/12/07 04:53:24;;;;;;;19.40;12.52;;;6.70;99.90;;;;;;4265177;27;20050;-61
2023/12/07 04:55:27;;;;;;;17.10;12.45;;;6.60;99.90;;;;;;4264819;27;20046;-61
2023/12/07 04:57:29;;;;;;;16.88;12.80;;;6.60;99.90;;;;;;4265122;27;20038;-61
2023/12/07 04:59:32;;;;;;;17.83;13.30;;;6.50;99.90;;;;;;4264619;27;20143;-60
2023/12/07 05:01:35;;;;;;;19.90;12.85;;;6.50;99.90;;;;;;4265336;27;20129;-61
2023/12/07 05:03:37;;;;;;;19.30;12.55;;;6.50;99.90;;;;;;4265435;27;20443;-61
2023/12/07 05:05:40;;;;;;;20.38;13.23;;;6.50;99.90;;;;;;4265373;27;20038;-61
2023/12/07 05:07:42;;;;;;;15.60;11.45;;;6.40;99.90;;;;;;4246789;27;20051;-61
2023/12/07 05:09:44;;;;;;;12.63;9.38;;;6.40;99.90;;;;;;4264803;27;20066;-61
2023/12/07 05:11:47;;;;;;;19.67;11.23;;;6.40;99.90;;;;;;4264626;27;20099;-60
2023/12/07 05:13:50;;;;;;;15.52;11.70;;;6.30;99.90;;;;;;4264002;27;20046;-61
2023/12/07 05:15:52;;;;;;;18.52;11.98;;;6.30;99.90;;;;;;4264349;27;20058;-60
2023/12/07 05:17:54;;;;;;;18.60;11.10;;;6.20;99.90;;;;;;4264792;27;20509;-61
2023/12/07 05:19:56;;;;;;;16.85;12.32;;;6.30;99.90;;;;;;4264773;27;20039;-61
2023/12/07 05:21:58;;;;;;;17.85;12.27;;;6.40;99.90;;;;;;4264413;27;20042;-61
2023/12/07 05:24:00;;;;;;;14.77;11.02;;;6.30;99.90;;;;;;4264327;27;20069;-61
2023/12/07 05:26:02;;;;;;;16.02;11.88;;;6.30;99.90;;;;;;4264758;27;20126;-61
2023/12/07 05:28:06;;;;;;;15.43;10.77;;;6.30;99.90;;;;;;4246068;27;20130;-61
2023/12/07 05:30:09;;;;;;;15.93;10.80;;;6.40;99.90;;;;;;4245895;28;20077;-61
2023/12/07 05:32:11;;;;;;;18.20;10.52;;;6.50;99.90;;;;;;4264576;27;20047;-61
2023/12/07 05:34:13;;;;;;;17.88;10.38;;;6.40;99.90;;;;;;4246218;28;20129;-62
2023/12/07 05:36:16;;;;;;;15.55;10.18;;;6.40;99.90;;;;;;4264601;27;20393;-61
2023/12/07 05:38:18;;;;;;;13.48;9.30;;;6.40;99.90;;;;;;4245876;28;20047;-61
2023/12/07 05:40:20;;;;;;;11.57;8.88;;;6.50;99.90;;;;;;4264211;27;20125;-61
2023/12/07 05:42:22;;;;;;;16.15;9.82;;;6.50;99.90;;;;;;4264612;27;20125;-61
2023/12/07 05:44:25;;;;;;;14.43;9.80;;;6.50;99.90;;;;;;4264698;27;20416;-66
2023/12/07 05:46:28;;;;;;;13.07;9.63;;;6.50;99.90;;;;;;4246805;27;20130;-61
2023/12/07 05:48:30;;;;;;;12.40;8.75;;;6.60;99.90;;;;;;4264434;27;20039;-60
2023/12/07 05:50:32;;;;;;;14.98;10.10;;;6.70;99.90;;;;;;4264330;27;20046;-61
2023/12/07 05:52:34;;;;;;;13.00;9.32;;;6.60;99.90;;;;;;4265511;27;20046;-61
2023/12/07 05:54:36;;;;;;;13.43;9.93;;;6.50;99.90;;;;;;4267702;27;20451;-61
2023/12/07 05:56:38;;;;;;;16.70;9.93;;;6.40;99.90;;;;;;4267823;27;20069;-61
2023/12/07 05:58:40;;;;;;;19.65;10.60;;;6.50;99.90;;;;;;4267175;27;20042;-63
2023/12/07 06:00:46;;;;;;;12.35;9.25;;;6.40;99.90;;;;;;4267794;27;20051;-61
2023/12/07 06:02:49;;;;;;;17.15;10.15;;;6.50;99.90;;;;;;4248942;27;20051;-61
2023/12/07 06:04:51;;;;;;;13.90;9.18;;;6.60;99.90;;;;;;4267811;27;20042;-61
2023/12/07 06:06:53;;;;;;;15.18;9.43;;;6.60;99.90;;;;;;4248977;27;20128;-61
2023/12/07 06:08:55;;;;;;;12.93;9.25;;;6.60;99.90;;;;;;4267422;27;20045;-61
2023/12/07 06:10:57;;;;;;;14.55;9.20;;;6.50;99.90;;;;;;4267699;27;20049;-60
2023/12/07 06:13:00;;;;;;;14.07;9.18;;;6.60;99.90;;;;;;4267059;27;20057;-60
2023/12/07 06:15:03;;;;;;;13.93;7.97;;;6.60;99.90;;;;;;4267706;27;20063;-61
2023/12/07 06:17:08;;;;;;;14.95;8.90;;;6.60;99.90;;;;;;4267018;27;20571;-61
2023/12/07 06:19:10;;;;;;;14.35;9.82;;;6.80;99.90;;;;;;4267578;27;20035;-61
2023/12/07 06:21:14;;;;;;;10.63;7.97;;;6.70;99.90;;;;;;4267322;27;20039;-61
2023/12/07 06:23:16;;;;;;;10.45;7.85;;;6.70;99.90;;;;;;4267456;27;20054;-61
2023/12/07 06:25:18;;;;;;;15.80;9.85;;;6.80;99.90;;;;;;4267280;27;20251;-61
2023/12/07 06:27:20;;;;;;;13.18;9.13;;;6.80;99.90;;;;;;4267003;27;20472;-61
2023/12/07 06:29:22;;;;;;;15.60;9.27;;;6.80;99.90;;;;;;4267486;27;20054;-61
2023/12/07 06:31:27;;;;;;;14.55;9.45;;;6.70;99.90;;;;;;4268218;27;20413;-61
2023/12/07 06:33:30;;;;;;;15.10;8.18;;;6.80;99.90;;;;;;4268332;27;20047;-60
2023/12/07 06:35:32;;;;;;;12.20;7.50;;;6.80;99.90;;;;;;4267379;27;20050;-61
2023/12/07 06:37:34;;;;;;;13.38;8.50;;;6.80;99.90;;;;;;4267008;27;20057;-61
2023/12/07 06:39:36;;;;;;;13.63;7.82;;;6.80;99.90;;;;;;4267064;27;20047;-61
2023/12/07 06:41:38;;;;;;;12.48;7.10;;;6.80;99.90;;;;;;4248415;27;20498;-61
2023/12/07 06:43:41;;;;;;;12.07;8.35;;;6.80;99.90;;;;;;4267177;27;20401;-61
2023/12/07 06:45:43;;;;;;;10.35;7.85;;;6.70;99.90;;;;;;4267154;27;20099;-61
2023/12/07 06:47:45;;;;;;;12.40;8.32;;;6.80;99.90;;;;;;4267259;27;20400;-61
2023/12/07 06:49:48;;;;;;;12.23;8.25;;;6.70;99.90;;;;;;4266962;27;20050;-60
2023/12/07 06:51:54;;;;;;;13.75;8.00;;;6.60;99.90;;;;;;4266507;27;20081;-61
2023/12/07 06:53:56;;;;;;;13.18;7.05;;;6.70;99.90;;;;;;4267036;27;20405;-60
2023/12/07 06:55:58;;;;;;;9.15;7.57;;;6.60;99.90;;;;;;4266309;27;20054;-61
2023/12/07 06:58:00;;;;;;;13.15;6.90;;;6.70;99.90;;;;;;4265874;27;20489;-61
2023/12/07 07:00:05;;;;;;;9.05;6.85;;;6.70;99.90;;;;;;4266954;27;20386;-59
2023/12/07 07:02:08;;;;;;;9.27;6.47;;;6.70;99.90;;;;;;4266562;27;20386;-61
2023/12/07 07:04:10;;;;;;;10.07;6.63;;;6.60;99.90;;;;;;4266538;27;20047;-61
2023/12/07 07:06:13;;;;;;;9.10;5.70;;;6.70;99.90;;;;;;4266761;27;20053;-60
2023/12/07 07:08:15;;;;;;;11.13;7.43;;;6.70;99.90;;;;;;4266449;27;20042;-60
2023/12/07 07:10:17;;;;;;;14.63;7.30;;;6.70;99.90;;;;;;4266350;27;20080;-60
2023/12/07 07:12:20;;;;;;;12.02;6.88;;;6.80;99.90;;;;;;4266378;27;20045;-61
2023/12/07 07:14:22;;;;;;;11.88;7.43;;;6.80;99.90;;;;;;4266511;27;20047;-61
2023/12/07 07:16:24;;;;;;;9.05;6.82;;;6.70;99.90;;;;;;4248052;27;20134;-59
2023/12/07 07:18:27;;;;;;;9.02;6.43;;;6.70;99.90;;;;;;4266278;27;20042;-60
2023/12/07 07:20:30;;;;;;;15.63;6.00;;;6.70;99.90;;;;;;4266404;27;20054;-61
2023/12/07 07:22:34;;;;;;;12.45;6.38;;;6.80;99.90;;;;;;4248158;27;20050;-61
2023/12/07 07:24:36;;;;;;;10.05;5.90;;;6.80;99.90;;;;;;4266222;27;20043;-61
2023/12/07 07:26:38;;;;;;;10.10;6.78;;;6.80;99.90;;;;;;4266154;27;20413;-62
2023/12/07 07:28:40;;;;;;;11.57;6.50;;;6.80;99.90;;;;;;4266677;27;20046;-61
2023/12/07 07:30:42;;;;;;;12.18;7.50;;;6.90;99.90;;;;;;4267278;27;20043;-68
2023/12/07 07:32:44;;;;;;;14.13;7.00;;;7.00;99.90;;;;;;4267133;27;20047;-61
2023/12/07 07:34:46;;;;;;;12.02;6.68;;;6.90;99.90;;;;;;4266611;27;20091;-61
2023/12/07 07:36:50;;;;;;;12.77;5.97;;;6.80;99.90;;;;;;4266454;27;20069;-61
2023/12/07 07:38:53;;;;;;;12.88;6.47;;;6.80;99.90;;;;;;4265949;27;20062;-60
2023/12/07 07:40:55;;;;;;;10.95;6.53;;;6.90;99.90;;;;;;4265572;27;20082;-61
2023/12/07 07:42:58;;;;;;;10.15;6.47;;;7.00;99.90;;;;;;4266021;27;20409;-61
2023/12/07 07:45:00;;;;;;;13.82;6.97;;;6.90;99.90;;;;;;4266083;27;20050;-61
2023/12/07 07:47:02;;;;;;;12.23;6.20;;;6.90;99.90;;;;;;4266152;27;20047;-60
2023/12/07 07:49:04;;;;;;;10.40;5.90;;;6.90;99.90;;;;;;4266132;27;20070;-61
2023/12/07 07:51:07;;;;;;;12.80;6.78;;;6.90;99.90;;;;;;4265858;27;20039;-62
2023/12/07 07:53:09;;;;;;;12.00;6.60;;;6.90;99.90;;;;;;4267287;27;20563;-62
2023/12/07 07:55:12;;;;;;;10.85;7.45;;;6.80;99.90;;;;;;4266446;27;20046;-61
2023/12/07 07:57:14;;;;;;;9.88;6.65;;;6.80;99.90;;;;;;4265941;27;20141;-62
2023/12/07 07:59:17;;;;;;;8.90;6.43;;;6.80;99.90;;;;;;4266031;27;20145;-61
2023/12/07 08:01:19;;;;;;;12.52;6.68;;;6.70;99.90;;;;;;4265821;27;20050;-60
2023/12/07 08:03:21;;;;;;;10.52;6.90;;;6.70;99.90;;;;;;4265755;27;20043;-60
2023/12/07 08:05:23;;;;;;;11.18;7.07;;;6.70;99.90;;;;;;4265742;27;20049;-60
2023/12/07 08:07:25;;;;;;;11.68;6.55;;;6.70;99.90;;;;;;4265524;27;20047;-61
2023/12/07 08:09:28;;;;;;;9.57;6.45;;;6.70;99.90;;;;;;4265418;27;20119;-60
2023/12/07 08:11:32;;;;;;;19.10;7.55;;;6.60;99.90;;;;;;4265845;27;20035;-61
2023/12/07 08:13:34;;;;;;;9.93;6.75;;;6.60;99.90;;;;;;4265881;27;20054;-61
2023/12/07 08:15:36;;;;;;;14.48;7.03;;;6.50;99.90;;;;;;4265117;27;20464;-60
2023/12/07 08:17:40;;;;;;;13.88;7.07;;;6.60;99.90;;;;;;4265813;27;20046;-61
2023/12/07 08:19:43;;;;;;;9.52;6.30;;;6.60;99.90;;;;;;4265539;27;20534;-60
2023/12/07 08:21:45;;;;;;;14.93;7.45;;;6.60;99.90;;;;;;4265364;27;20592;-60
2023/12/07 08:23:47;;;;;;;16.00;6.82;;;6.60;99.90;;;;;;4265135;27;20050;-60
2023/12/07 08:25:49;;;;;;;10.60;6.78;;;6.60;99.90;;;;;;4247165;27;20078;-66
2023/12/07 08:27:52;;;;;;;10.15;5.90;;;6.60;99.90;;;;;;4246930;27;20048;-60
2023/12/07 08:29:54;;;;;;;10.55;6.97;;;6.60;99.90;;;;;;4265340;27;20049;-60
2023/12/07 08:31:56;;;;;;;13.82;6.85;;;6.50;99.90;;;;;;4265148;27;20456;-61
2023/12/07 08:34:00;;;;;;;12.32;7.43;;;6.50;99.90;;;;;;4265285;27;20172;-60
2023/12/07 08:36:03;;;;;;;10.73;6.85;;;6.50;99.90;;;;;;4265538;27;20043;-60
2023/12/07 08:38:05;;;;;;;10.95;6.95;;;6.50;99.90;;;;;;4246368;27;20043;-60
2023/12/07 08:40:11;;;;;;;9.55;6.28;;;6.40;99.90;;;;;;4265014;27;20051;-61
2023/12/07 08:42:13;;;;;;;12.35;6.80;;;6.50;99.90;;;;;;4265261;27;20542;-61
2023/12/07 08:44:17;;;;;;;12.48;7.43;;;6.50;99.90;;;;;;4246652;27;20545;-61
2023/12/07 08:46:19;;;;;;;10.02;6.45;;;6.50;99.90;;;;;;4265274;27;20569;-60
2023/12/07 08:48:21;;;;;;;9.38;6.47;;;6.60;99.90;;;;;;4264920;27;20047;-61
2023/12/07 08:50:23;;;;;;;14.50;6.65;;;6.70;99.90;;;;;;4265168;27;20038;-61
2023/12/07 08:52:25;;;;;;;11.98;6.88;;;6.70;99.90;;;;;;4265165;27;20053;-60
2023/12/07 08:54:44;;;;;;;12.70;6.47;;;6.70;99.90;;;;;;4250251;27;20047;-61
2023/12/07 08:56:47;;;;;;;12.73;6.72;;;6.70;99.90;;;;;;4265980;27;20129;-61
2023/12/07 08:58:49;;;;;;;10.88;6.15;;;6.70;99.90;;;;;;4246799;27;20104;-61
2023/12/07 09:00:52;;;;;;;10.60;6.13;;;6.80;99.90;;;;;;4265045;27;20047;-61
2023/12/07 09:02:54;;;;;;;9.55;5.75;;;6.90;99.90;;;;;;4265078;27;20046;-61
2023/12/07 09:04:57;;;;;;;10.15;6.03;;;6.90;99.90;;;;;;4265058;27;20046;-60
2023/12/07 09:06:59;;;;;;;12.02;7.28;;;6.80;99.90;;;;;;4264564;27;20042;-60
2023/12/07 09:09:01;;;;;;;11.13;6.63;;;6.80;99.90;;;;;;4264946;27;20072;-60
2023/12/07 09:11:04;;;;;;;13.15;6.90;;;6.80;99.90;;;;;;4264939;27;20095;-63
2023/12/07 09:13:06;;;;;;;9.73;6.20;;;6.90;99.90;;;;;;4265000;27;20043;-60
2023/12/07 09:15:09;;;;;;;14.60;5.68;;;7.00;99.90;;;;;;4264895;27;20042;-63
2023/12/07 09:17:15;;;;;;;9.45;4.82;;;7.00;99.90;;;;;;4266180;27;20490;-61
2023/12/07 09:19:17;;;;;;;8.27;5.45;;;7.10;99.90;;;;;;4266843;27;20091;-61
2023/12/07 09:21:19;;;;;;;8.10;5.53;;;7.20;99.90;;;;;;4247472;28;20047;-61
2023/12/07 09:23:21;;;;;;;10.68;5.88;;;7.20;99.90;;;;;;4265765;27;20080;-62
2023/12/07 09:25:23;;;;;;;12.77;6.35;;;7.10;99.90;;;;;;4266294;27;20039;-61
2023/12/07 09:27:25;;;;;;;10.60;6.00;;;7.10;99.90;;;;;;4268870;27;20501;-62
2023/12/07 09:29:28;;;;;;;12.50;6.10;;;7.10;99.90;;;;;;4269785;27;20061;-62
2023/12/07 09:31:30;;;;;;;8.20;5.45;;;7.10;99.80;;;;;;4268900;27;20039;-61
2023/12/07 09:33:34;;;;;;;15.40;6.68;;;7.20;99.90;;;;;;4268022;27;20477;-60
2023/12/07 09:35:36;;;;;;;10.13;6.00;;;7.20;99.90;;;;;;4268061;27;20074;-61
2023/12/07 09:37:38;;;;;;;9.95;6.10;;;7.20;99.90;;;;;;4268202;27;20103;-61
2023/12/07 09:39:40;;;;;;;10.32;5.43;;;7.20;99.60;;;;;;4267860;27;20043;-61
2023/12/07 09:41:44;;;;;;;12.07;6.35;;;7.30;99.90;;;;;;4267965;27;20042;-61
2023/12/07 09:43:46;;;;;;;12.75;6.25;;;7.30;99.80;;;;;;4250006;27;20043;-61
2023/12/07 09:45:48;;;;;;;10.40;6.88;;;7.30;99.50;;;;;;4268250;27;20464;-60
2023/12/07 09:47:54;;;;;;;;;;;7.30;99.90;;;;;;4268425;27;20050;-61
2023/12/07 09:49:58;;;;;;;7.53;5.45;;;7.30;99.40;;;;;;4267749;27;19969;-61
2023/12/07 09:52:02;;;;;;;5.85;3.67;;;7.40;99.70;;;;;;4268361;27;20054;-61
2023/12/07 09:54:05;;;;;;;8.77;5.40;;;7.40;99.40;;;;;;4267751;27;20102;-61
2023/12/07 09:56:08;;;;;;;8.95;5.45;;;7.30;99.40;;;;;;4268128;27;20051;-61
2023/12/07 09:58:15;;;;;;;14.27;5.70;;;7.30;99.50;;;;;;4267746;27;20046;-60
2023/12/07 10:00:21;;;;;;;12.50;5.90;;;7.30;99.50;;;;;;4267654;27;20146;-60
2023/12/07 10:02:25;;;;;;;8.32;4.85;;;7.40;99.90;;;;;;4265767;27;20537;-63
2023/12/07 10:04:27;;;;;;;7.15;4.07;;;7.40;99.10;;;;;;4257392;27;20042;-67
2023/12/07 10:06:43;;;;;;;7.75;4.65;;;7.90;99.90;;;;;;4266784;27;20042;-60
2023/12/07 10:08:46;;;;;;;7.53;5.13;;;8.10;99.40;;;;;;4248108;27;20561;-60
2023/12/07 10:11:02;;;;;;;8.88;5.22;;;8.20;98.70;;;;;;4267463;27;20084;-61
2023/12/07 10:13:04;;;;;;;10.30;5.05;;;8.60;98.80;;;;;;4267379;27;20042;-60
2023/12/07 10:15:13;;;;;;;9.82;4.78;;;8.80;98.30;;;;;;4267377;27;20104;-61
2023/12/07 10:17:15;;;;;;;16.95;5.72;;;9.00;97.50;;;;;;4266140;27;20039;-61
2023/12/07 10:19:21;;;;;;;14.05;4.82;;;9.10;97.60;;;;;;4266993;27;20114;-62
2023/12/07 10:21:34;;;;;;;11.88;5.03;;;9.10;97.70;;;;;;4267407;27;20146;-62
2023/12/07 10:23:37;;;;;;;11.93;5.03;;;9.00;97.10;;;;;;4267380;27;20051;-60
2023/12/07 10:25:41;;;;;;;12.25;5.80;;;9.00;96.30;;;;;;4247850;27;20047;-61
2023/12/07 10:27:44;;;;;;;6.97;4.18;;;8.60;96.70;;;;;;4263383;27;20047;-60
2023/12/07 10:29:46;;;;;;;15.48;4.70;;;8.50;97.60;;;;;;4267331;27;20047;-61
2023/12/07 10:31:48;;;;;;;13.13;4.63;;;8.90;97.00;;;;;;4267250;27;20049;-61
2023/12/07 10:33:50;;;;;;;10.65;4.40;;;9.10;97.60;;;;;;4264684;27;20513;-61
2023/12/07 10:35:53;;;;;;;9.70;4.07;;;9.10;96.60;;;;;;4267711;27;20119;-60